sensor_id;sensor_type;location;lat;lon;timestamp;pressure;altitude;pressure_sealevel;temperature;humidity
82262;BME280;71861;52.364;6.580;2023-09-18T03:02:26;100489.38;;;18.75;85.99
82262;BME280;71861;52.364;6.580;2023-09-18T03:04:51;100489.38;;;18.75;85.89
82262;BME280;71861;52.364;6.580;2023-09-18T03:07:16;100485.69;;;18.76;85.90
82262;BME280;71861;52.364;6.580;2023-09-18T03:09:42;100481.69;;;18.74;85.85
82262;BME280;71861;52.364;6.580;2023-09-18T03:12:08;100479.06;;;18.74;85.61
82262;BME280;71861;52.364;6.580;2023-09-18T03:14:33;100459.81;;;18.73;85.56
82262;BME280;71861;52.364;6.580;2023-09-18T03:16:59;100456.59;;;18.71;85.69
82262;BME280;71861;52.364;6.580;2023-09-18T03:19:25;100448.69;;;18.71;85.79
82262;BME280;71861;52.364;6.580;2023-09-18T03:21:52;100452.16;;;18.72;85.76
82262;BME280;71861;52.364;6.580;2023-09-18T03:24:17;100435.31;;;18.73;85.69
82262;BME280;71861;52.364;6.580;2023-09-18T03:26:42;100425.81;;;18.72;85.88
82262;BME280;71861;52.364;6.580;2023-09-18T03:29:08;100418.75;;;18.72;85.81
82262;BME280;71861;52.364;6.580;2023-09-18T03:31:33;100404.78;;;18.72;85.84
82262;BME280;71861;52.364;6.580;2023-09-18T03:33:58;100394.25;;;18.72;85.79
82262;BME280;71861;52.364;6.580;2023-09-18T03:36:24;100391.63;;;18.72;85.71
82262;BME280;71861;52.364;6.580;2023-09-18T03:38:49;100376.84;;;18.71;85.57
82262;BME280;71861;52.364;6.580;2023-09-18T03:41:15;100377.63;;;18.71;85.57
82262;BME280;71861;52.364;6.580;2023-09-18T03:43:40;100373.19;;;18.72;85.55
82262;BME280;71861;52.364;6.580;2023-09-18T03:46:06;100360.47;;;18.69;85.35
82262;BME280;71861;52.364;6.580;2023-09-18T03:48:32;100356.81;;;18.70;85.27
82262;BME280;71861;52.364;6.580;2023-09-18T03:51:06;100349.13;;;18.68;85.47
82262;BME280;71861;52.364;6.580;2023-09-18T03:53:34;100344.91;;;18.67;85.52
82262;BME280;71861;52.364;6.580;2023-09-18T03:56:00;100340.19;;;18.69;85.32
82262;BME280;71861;52.364;6.580;2023-09-18T03:58:25;100332.53;;;18.68;85.24
82262;BME280;71861;52.364;6.580;2023-09-18T04:00:52;100322.59;;;18.70;85.34
82262;BME280;71861;52.364;6.580;2023-09-18T04:03:17;100333.13;;;18.70;85.17
82262;BME280;71861;52.364;6.580;2023-09-18T04:05:42;100320.19;;;18.68;85.37
82262;BME280;71861;52.364;6.580;2023-09-18T04:08:08;100317.56;;;18.68;85.14
82262;BME280;71861;52.364;6.580;2023-09-18T04:10:34;100314.91;;;18.68;85.65
82262;BME280;71861;52.364;6.580;2023-09-18T04:12:59;100311.47;;;18.68;85.74
82262;BME280;71861;52.364;6.580;2023-09-18T04:15:25;100323.03;;;18.67;85.50
82262;BME280;71861;52.364;6.580;2023-09-18T04:17:50;100325.44;;;18.68;85.54
82262;BME280;71861;52.364;6.580;2023-09-18T04:20:16;100322.81;;;18.68;85.58
82262;BME280;71861;52.364;6.580;2023-09-18T04:22:45;100318.97;;;18.71;85.60
82262;BME280;71861;52.364;6.580;2023-09-18T04:25:15;100329.66;;;18.69;86.02
82262;BME280;71861;52.364;6.580;2023-09-18T04:27:40;100321.00;;;18.69;85.72
82262;BME280;71861;52.364;6.580;2023-09-18T04:30:06;100321.69;;;18.76;85.44
82262;BME280;71861;52.364;6.580;2023-09-18T04:32:35;100331.22;;;18.77;85.40
82262;BME280;71861;52.364;6.580;2023-09-18T04:35:00;100323.09;;;18.78;85.33
82262;BME280;71861;52.364;6.580;2023-09-18T04:37:26;100317.63;;;18.80;85.48
82262;BME280;71861;52.364;6.580;2023-09-18T04:39:51;100318.31;;;18.87;85.23
82262;BME280;71861;52.364;6.580;2023-09-18T04:42:17;100313.41;;;18.90;85.06
82262;BME280;71861;52.364;6.580;2023-09-18T04:44:43;100305.06;;;18.93;85.04
82262;BME280;71861;52.364;6.580;2023-09-18T04:47:08;100312.72;;;18.95;84.77
82262;BME280;71861;52.364;6.580;2023-09-18T04:49:34;100310.91;;;18.95;84.76
82262;BME280;71861;52.364;6.580;2023-09-18T04:52:00;100307.03;;;18.98;84.49
82262;BME280;71861;52.364;6.580;2023-09-18T04:54:25;100300.94;;;18.97;84.66
82262;BME280;71861;52.364;6.580;2023-09-18T04:56:50;100292.81;;;18.99;84.61
82262;BME280;71861;52.364;6.580;2023-09-18T04:59:16;100291.81;;;19.00;84.31
82262;BME280;71861;52.364;6.580;2023-09-18T05:01:41;100282.06;;;19.00;84.48
82262;BME280;71861;52.364;6.580;2023-09-18T05:04:07;100274.75;;;19.02;84.12
82262;BME280;71861;52.364;6.580;2023-09-18T05:06:33;100267.44;;;19.04;84.37
82262;BME280;71861;52.364;6.580;2023-09-18T05:08:58;100258.25;;;19.07;84.16
82262;BME280;71861;52.364;6.580;2023-09-18T05:11:24;100263.06;;;19.10;83.99
82262;BME280;71861;52.364;6.580;2023-09-18T05:13:49;100275.00;;;19.12;84.08
82262;BME280;71861;52.364;6.580;2023-09-18T05:16:16;100272.16;;;19.14;83.87
82262;BME280;71861;52.364;6.580;2023-09-18T05:18:41;100277.97;;;19.16;84.00
82262;BME280;71861;52.364;6.580;2023-09-18T05:21:07;100280.72;;;19.21;83.35
82262;BME280;71861;52.364;6.580;2023-09-18T05:23:32;100282.31;;;19.22;83.47
82262;BME280;71861;52.364;6.580;2023-09-18T05:25:57;100278.22;;;19.26;83.54
82262;BME280;71861;52.364;6.580;2023-09-18T05:28:24;100271.50;;;19.30;83.01
82262;BME280;71861;52.364;6.580;2023-09-18T05:30:50;100274.25;;;19.35;82.96
82262;BME280;71861;52.364;6.580;2023-09-18T05:33:15;100271.41;;;19.36;82.99
82262;BME280;71861;52.364;6.580;2023-09-18T05:35:42;100269.91;;;19.40;82.61
82262;BME280;71861;52.364;6.580;2023-09-18T05:38:11;100268.66;;;19.43;82.61
82262;BME280;71861;52.364;6.580;2023-09-18T05:40:38;100268.75;;;19.48;82.44
82262;BME280;71861;52.364;6.580;2023-09-18T05:43:04;100279.28;;;19.48;82.40
82262;BME280;71861;52.364;6.580;2023-09-18T05:45:29;100297.50;;;19.49;82.59
82262;BME280;71861;52.364;6.580;2023-09-18T05:47:56;100311.72;;;19.48;82.42
82262;BME280;71861;52.364;6.580;2023-09-18T05:50:32;100320.44;;;19.49;82.78
82262;BME280;71861;52.364;6.580;2023-09-18T05:52:58;100317.81;;;19.49;82.60
82262;BME280;71861;52.364;6.580;2023-09-18T05:55:33;100299.59;;;19.47;82.65
82262;BME280;71861;52.364;6.580;2023-09-18T05:57:59;100304.84;;;19.47;82.83
82262;BME280;71861;52.364;6.580;2023-09-18T06:00:25;100314.00;;;19.45;83.10
82262;BME280;71861;52.364;6.580;2023-09-18T06:02:51;100313.44;;;19.43;83.37
82262;BME280;71861;52.364;6.580;2023-09-18T06:05:17;100316.53;;;19.40;83.46
82262;BME280;71861;52.364;6.580;2023-09-18T06:07:42;100321.81;;;19.40;83.56
82262;BME280;71861;52.364;6.580;2023-09-18T06:10:08;100307.81;;;19.39;83.91
82262;BME280;71861;52.364;6.580;2023-09-18T06:12:33;100308.63;;;19.40;84.09
82262;BME280;71861;52.364;6.580;2023-09-18T06:14:58;100321.00;;;19.39;84.01
82262;BME280;71861;52.364;6.580;2023-09-18T06:17:24;100321.00;;;19.39;84.09
82262;BME280;71861;52.364;6.580;2023-09-18T06:19:49;100324.91;;;19.37;84.12
82262;BME280;71861;52.364;6.580;2023-09-18T06:22:15;100301.41;;;19.35;84.31
82262;BME280;71861;52.364;6.580;2023-09-18T06:24:40;100323.13;;;19.31;85.97
82262;BME280;71861;52.364;6.580;2023-09-18T06:27:05;100323.78;;;19.26;85.42
82262;BME280;71861;52.364;6.580;2023-09-18T06:29:32;100329.19;;;19.20;86.00
82262;BME280;71861;52.364;6.580;2023-09-18T06:31:57;100329.06;;;19.15;85.95
82262;BME280;71861;52.364;6.580;2023-09-18T06:34:23;100338.78;;;19.14;87.34
82262;BME280;71861;52.364;6.580;2023-09-18T06:36:48;100353.19;;;19.12;87.23
82262;BME280;71861;52.364;6.580;2023-09-18T06:39:14;100346.13;;;19.12;87.14
82262;BME280;71861;52.364;6.580;2023-09-18T06:41:40;100337.41;;;19.12;87.67
82262;BME280;71861;52.364;6.580;2023-09-18T06:44:05;100329.50;;;19.12;87.99
82262;BME280;71861;52.364;6.580;2023-09-18T06:46:31;100318.75;;;19.13;87.50
82262;BME280;71861;52.364;6.580;2023-09-18T06:48:56;100323.19;;;19.13;88.09
82262;BME280;71861;52.364;6.580;2023-09-18T06:51:23;100315.88;;;19.15;88.01
82262;BME280;71861;52.364;6.580;2023-09-18T06:53:48;100331.81;;;19.20;88.36
82262;BME280;71861;52.364;6.580;2023-09-18T06:56:14;100338.47;;;19.22;88.46
82262;BME280;71861;52.364;6.580;2023-09-18T06:58:39;100329.88;;;19.27;88.46
82262;BME280;71861;52.364;6.580;2023-09-18T07:01:04;100348.47;;;19.32;88.19
82262;BME280;71861;52.364;6.580;2023-09-18T07:03:32;100356.97;;;19.34;88.81
82262;BME280;71861;52.364;6.580;2023-09-18T07:05:59;100347.22;;;19.34;88.38
82262;BME280;71861;52.364;6.580;2023-09-18T07:08:25;100347.56;;;19.38;88.90
82262;BME280;71861;52.364;6.580;2023-09-18T07:10:50;100343.44;;;19.42;88.36
82262;BME280;71861;52.364;6.580;2023-09-18T07:13:27;100325.34;;;19.45;88.60
82262;BME280;71861;52.364;6.580;2023-09-18T07:15:53;100348.63;;;19.48;89.07
82262;BME280;71861;52.364;6.580;2023-09-18T07:18:18;100333.63;;;19.49;89.59
82262;BME280;71861;52.364;6.580;2023-09-18T07:20:43;100328.69;;;19.52;89.31
82262;BME280;71861;52.364;6.580;2023-09-18T07:23:09;100332.69;;;19.55;89.36
82262;BME280;71861;52.364;6.580;2023-09-18T07:25:35;100329.59;;;19.58;89.84
82262;BME280;71861;52.364;6.580;2023-09-18T07:28:05;100350.22;;;19.61;89.23
82262;BME280;71861;52.364;6.580;2023-09-18T07:30:30;100358.28;;;19.66;89.45
82262;BME280;71861;52.364;6.580;2023-09-18T07:32:56;100356.19;;;19.68;89.30
82262;BME280;71861;52.364;6.580;2023-09-18T07:35:24;100361.59;;;19.73;89.51
82262;BME280;71861;52.364;6.580;2023-09-18T07:37:50;100359.19;;;19.71;90.04
82262;BME280;71861;52.364;6.580;2023-09-18T07:40:15;100368.13;;;19.82;89.09
82262;BME280;71861;52.364;6.580;2023-09-18T07:42:43;100352.78;;;19.91;88.92
82262;BME280;71861;52.364;6.580;2023-09-18T07:45:10;100361.13;;;19.99;89.22
82262;BME280;71861;52.364;6.580;2023-09-18T07:47:35;100378.34;;;20.13;88.96
82262;BME280;71861;52.364;6.580;2023-09-18T07:50:01;100367.34;;;20.28;88.07
82262;BME280;71861;52.364;6.580;2023-09-18T07:52:26;100359.97;;;20.41;88.20
82262;BME280;71861;52.364;6.580;2023-09-18T07:54:52;100378.50;;;20.58;87.89
82262;BME280;71861;52.364;6.580;2023-09-18T07:57:17;100384.13;;;20.61;87.20
82262;BME280;71861;52.364;6.580;2023-09-18T07:59:43;100373.69;;;20.66;86.50
82262;BME280;71861;52.364;6.580;2023-09-18T08:02:09;100360.38;;;20.61;86.67
82262;BME280;71861;52.364;6.580;2023-09-18T08:04:35;100376.41;;;20.71;86.00
82262;BME280;71861;52.364;6.580;2023-09-18T08:07:00;100374.19;;;20.80;86.41
82262;BME280;71861;52.364;6.580;2023-09-18T08:09:26;100396.44;;;20.84;85.44
82262;BME280;71861;52.364;6.580;2023-09-18T08:11:54;100376.25;;;20.89;85.06
82262;BME280;71861;52.364;6.580;2023-09-18T08:14:21;100357.66;;;20.96;84.51
82262;BME280;71861;52.364;6.580;2023-09-18T08:16:47;100356.38;;;20.98;83.62
82262;BME280;71861;52.364;6.580;2023-09-18T08:19:15;100391.28;;;21.00;83.74
82262;BME280;71861;52.364;6.580;2023-09-18T08:21:42;100382.31;;;21.01;83.50
82262;BME280;71861;52.364;6.580;2023-09-18T08:24:07;100363.81;;;21.01;82.50
82262;BME280;71861;52.364;6.580;2023-09-18T08:26:32;100362.94;;;20.96;82.11
82262;BME280;71861;52.364;6.580;2023-09-18T08:28:58;100381.41;;;20.96;82.25
82262;BME280;71861;52.364;6.580;2023-09-18T08:31:23;100386.88;;;20.94;81.64
82262;BME280;71861;52.364;6.580;2023-09-18T08:33:49;100384.94;;;21.01;82.35
82262;BME280;71861;52.364;6.580;2023-09-18T08:36:16;100384.22;;;21.06;81.66
82262;BME280;71861;52.364;6.580;2023-09-18T08:38:41;100378.13;;;21.05;80.84
82262;BME280;71861;52.364;6.580;2023-09-18T08:41:09;100366.84;;;21.10;81.24
82262;BME280;71861;52.364;6.580;2023-09-18T08:43:34;100374.66;;;21.16;81.53
82262;BME280;71861;52.364;6.580;2023-09-18T08:46:02;100389.06;;;21.25;81.24
82262;BME280;71861;52.364;6.580;2023-09-18T08:48:29;100390.22;;;21.29;80.03
82262;BME280;71861;52.364;6.580;2023-09-18T08:51:01;100398.16;;;21.29;79.77
82262;BME280;71861;52.364;6.580;2023-09-18T08:53:30;100401.91;;;21.33;80.32
82262;BME280;71861;52.364;6.580;2023-09-18T08:55:56;100407.66;;;21.30;79.86
82262;BME280;71861;52.364;6.580;2023-09-18T08:58:25;100400.78;;;21.29;79.84
82262;BME280;71861;52.364;6.580;2023-09-18T09:00:51;100403.97;;;21.31;79.76
82262;BME280;71861;52.364;6.580;2023-09-18T09:03:17;100404.25;;;21.47;79.35
82262;BME280;71861;52.364;6.580;2023-09-18T09:05:43;100399.72;;;21.75;78.57
82262;BME280;71861;52.364;6.580;2023-09-18T09:08:08;100402.75;;;22.00;77.77
82262;BME280;71861;52.364;6.580;2023-09-18T09:10:34;100403.69;;;22.11;77.27
82262;BME280;71861;52.364;6.580;2023-09-18T09:12:59;100404.69;;;22.05;76.90
82262;BME280;71861;52.364;6.580;2023-09-18T09:15:28;100400.28;;;21.94;76.15
82262;BME280;71861;52.364;6.580;2023-09-18T09:18:07;100401.63;;;21.80;76.94
82262;BME280;71861;52.364;6.580;2023-09-18T09:20:34;100402.22;;;21.82;77.32
82262;BME280;71861;52.364;6.580;2023-09-18T09:23:03;100403.25;;;21.81;76.90
82262;BME280;71861;52.364;6.580;2023-09-18T09:25:31;100403.56;;;21.84;76.66
82262;BME280;71861;52.364;6.580;2023-09-18T09:27:58;100401.25;;;21.88;75.69
82262;BME280;71861;52.364;6.580;2023-09-18T09:30:26;100401.94;;;22.00;76.66
82262;BME280;71861;52.364;6.580;2023-09-18T09:32:53;100399.38;;;22.05;74.38
82262;BME280;71861;52.364;6.580;2023-09-18T09:35:25;100404.84;;;21.98;74.60
82262;BME280;71861;52.364;6.580;2023-09-18T09:37:57;100405.88;;;21.97;74.88
82262;BME280;71861;52.364;6.580;2023-09-18T09:40:25;100407.88;;;22.07;74.40
82262;BME280;71861;52.364;6.580;2023-09-18T09:42:55;100410.91;;;22.15;74.12
82262;BME280;71861;52.364;6.580;2023-09-18T09:45:26;100413.97;;;22.24;73.91
82262;BME280;71861;52.364;6.580;2023-09-18T09:47:53;100409.31;;;22.14;73.17
82262;BME280;71861;52.364;6.580;2023-09-18T09:50:19;100410.09;;;22.15;73.37
82262;BME280;71861;52.364;6.580;2023-09-18T09:52:49;100418.44;;;22.23;73.51
82262;BME280;71861;52.364;6.580;2023-09-18T09:55:28;100420.19;;;22.18;72.38
82262;BME280;71861;52.364;6.580;2023-09-18T10:00:33;100416.56;;;22.02;72.13
82262;BME280;71861;52.364;6.580;2023-09-18T10:03:12;100420.06;;;22.08;72.32
82262;BME280;71861;52.364;6.580;2023-09-18T10:05:41;100437.63;;;22.14;72.04
82262;BME280;71861;52.364;6.580;2023-09-18T10:08:09;100428.56;;;22.10;70.90
82262;BME280;71861;52.364;6.580;2023-09-18T10:10:38;100432.00;;;22.27;72.11
82262;BME280;71861;52.364;6.580;2023-09-18T10:13:10;100423.13;;;22.54;70.61
82262;BME280;71861;52.364;6.580;2023-09-18T10:15:38;100435.81;;;22.74;71.47
82262;BME280;71861;52.364;6.580;2023-09-18T10:18:07;100435.69;;;22.64;69.31
82262;BME280;71861;52.364;6.580;2023-09-18T10:20:39;100449.91;;;22.79;70.41
82262;BME280;71861;52.364;6.580;2023-09-18T10:23:12;100446.53;;;23.27;70.07
82262;BME280;71861;52.364;6.580;2023-09-18T10:25:45;100455.66;;;23.68;68.45
82262;BME280;71861;52.364;6.580;2023-09-18T10:28:12;100452.38;;;23.87;67.79
82262;BME280;71861;52.364;6.580;2023-09-18T10:33:07;100459.00;;;24.21;66.19
82262;BME280;71861;52.364;6.580;2023-09-18T10:35:34;100462.28;;;24.33;65.05
82262;BME280;71861;52.364;6.580;2023-09-18T10:38:00;100453.91;;;24.56;63.15
82262;BME280;71861;52.364;6.580;2023-09-18T10:40:28;100442.78;;;24.64;63.63
82262;BME280;71861;52.364;6.580;2023-09-18T10:42:57;100453.28;;;24.86;64.04
82262;BME280;71861;52.364;6.580;2023-09-18T10:45:22;100457.34;;;25.19;62.73
82262;BME280;71861;52.364;6.580;2023-09-18T10:47:48;100457.56;;;24.97;61.73
82262;BME280;71861;52.364;6.580;2023-09-18T10:50:23;100455.69;;;24.93;62.69
82262;BME280;71861;52.364;6.580;2023-09-18T10:52:49;100450.44;;;25.18;60.65
82262;BME280;71861;52.364;6.580;2023-09-18T10:55:15;100458.25;;;25.39;61.67
82262;BME280;71861;52.364;6.580;2023-09-18T10:58:00;100452.41;;;25.47;61.79
82262;BME280;71861;52.364;6.580;2023-09-18T11:00:26;100467.28;;;25.43;60.17
82262;BME280;71861;52.364;6.580;2023-09-18T11:02:53;100463.03;;;25.57;59.35
82262;BME280;71861;52.364;6.580;2023-09-18T11:05:34;100460.94;;;25.79;58.18
82262;BME280;71861;52.364;6.580;2023-09-18T11:11:07;100464.94;;;25.77;57.08
82262;BME280;71861;52.364;6.580;2023-09-18T11:13:40;100461.91;;;25.28;60.50
82262;BME280;71861;52.364;6.580;2023-09-18T11:21:24;100463.88;;;24.34;61.70
82262;BME280;71861;52.364;6.580;2023-09-18T11:24:04;100460.28;;;24.09;63.05
82262;BME280;71861;52.364;6.580;2023-09-18T11:26:31;100462.66;;;24.10;63.44
82262;BME280;71861;52.364;6.580;2023-09-18T11:29:03;100456.34;;;24.21;63.45
82262;BME280;71861;52.364;6.580;2023-09-18T11:31:50;100450.53;;;24.19;63.42
82262;BME280;71861;52.364;6.580;2023-09-18T11:36:41;100447.59;;;24.21;64.55
82262;BME280;71861;52.364;6.580;2023-09-18T11:41:34;100442.75;;;23.76;63.51
82262;BME280;71861;52.364;6.580;2023-09-18T11:46:49;100447.81;;;23.25;64.52
82262;BME280;71861;52.364;6.580;2023-09-18T11:49:23;100440.56;;;23.20;66.14
82262;BME280;71861;52.364;6.580;2023-09-18T11:51:53;100443.75;;;23.70;66.26
82262;BME280;71861;52.364;6.580;2023-09-18T11:54:19;100436.81;;;23.96;62.45
82262;BME280;71861;52.364;6.580;2023-09-18T11:56:46;100447.34;;;23.91;61.55
82262;BME280;71861;52.364;6.580;2023-09-18T11:59:12;100443.66;;;23.92;62.57
82262;BME280;71861;52.364;6.580;2023-09-18T12:01:38;100444.53;;;23.97;63.51
82262;BME280;71861;52.364;6.580;2023-09-18T12:04:05;100437.75;;;24.21;61.30
82262;BME280;71861;52.364;6.580;2023-09-18T12:06:38;100423.59;;;24.47;57.78
82262;BME280;71861;52.364;6.580;2023-09-18T12:09:04;100433.19;;;24.58;58.09
82262;BME280;71861;52.364;6.580;2023-09-18T12:11:29;100432.13;;;24.54;58.35
82262;BME280;71861;52.364;6.580;2023-09-18T12:13:55;100441.25;;;24.69;58.34
82262;BME280;71861;52.364;6.580;2023-09-18T12:16:20;100433.94;;;25.06;58.61
82262;BME280;71861;52.364;6.580;2023-09-18T12:18:49;100430.84;;;25.64;58.86
82262;BME280;71861;52.364;6.580;2023-09-18T12:21:16;100417.53;;;25.79;53.74
82262;BME280;71861;52.364;6.580;2023-09-18T12:23:44;100407.72;;;25.59;53.63
82262;BME280;71861;52.364;6.580;2023-09-18T12:26:10;100408.50;;;25.70;53.90
82262;BME280;71861;52.364;6.580;2023-09-18T12:28:38;100399.44;;;25.86;54.31
82262;BME280;71861;52.364;6.580;2023-09-18T12:31:04;100407.72;;;25.89;54.15
82262;BME280;71861;52.364;6.580;2023-09-18T12:33:36;100411.16;;;25.75;54.31
82262;BME280;71861;52.364;6.580;2023-09-18T12:36:03;100423.66;;;25.74;53.85
82262;BME280;71861;52.364;6.580;2023-09-18T12:38:30;100424.47;;;25.70;54.49
82262;BME280;71861;52.364;6.580;2023-09-18T12:40:56;100424.44;;;25.45;55.38
82262;BME280;71861;52.364;6.580;2023-09-18T12:43:23;100418.50;;;24.98;55.28
82262;BME280;71861;52.364;6.580;2023-09-18T12:45:50;100429.75;;;24.58;57.21
82262;BME280;71861;52.364;6.580;2023-09-18T12:48:16;100440.94;;;24.18;57.67
82262;BME280;71861;52.364;6.580;2023-09-18T12:50:41;100430.09;;;23.88;59.81
82262;BME280;71861;52.364;6.580;2023-09-18T12:53:14;100438.22;;;23.45;62.45
82262;BME280;71861;52.364;6.580;2023-09-18T12:55:41;100455.41;;;22.94;64.93
82262;BME280;71861;52.364;6.580;2023-09-18T12:58:10;100464.25;;;22.24;69.51
82262;BME280;71861;52.364;6.580;2023-09-18T13:00:36;100473.31;;;21.22;73.71
82262;BME280;71861;52.364;6.580;2023-09-18T13:03:04;100449.63;;;20.87;78.09
82262;BME280;71861;52.364;6.580;2023-09-18T13:05:30;100453.72;;;21.06;77.06
82262;BME280;71861;52.364;6.580;2023-09-18T13:08:04;100442.22;;;21.40;76.85
82262;BME280;71861;52.364;6.580;2023-09-18T13:10:41;100435.00;;;21.81;75.92
82262;BME280;71861;52.364;6.580;2023-09-18T13:13:06;100433.38;;;22.13;75.76
82262;BME280;71861;52.364;6.580;2023-09-18T13:15:32;100430.34;;;22.42;74.38
82262;BME280;71861;52.364;6.580;2023-09-18T13:17:59;100424.66;;;22.72;74.19
82262;BME280;71861;52.364;6.580;2023-09-18T13:20:29;100418.66;;;23.03;73.02
82262;BME280;71861;52.364;6.580;2023-09-18T13:22:57;100413.75;;;23.17;72.04
82262;BME280;71861;52.364;6.580;2023-09-18T13:25:25;100404.13;;;23.32;71.76
82262;BME280;71861;52.364;6.580;2023-09-18T13:27:51;100397.88;;;23.43;70.65
82262;BME280;71861;52.364;6.580;2023-09-18T13:30:17;100402.78;;;23.56;70.48
82262;BME280;71861;52.364;6.580;2023-09-18T13:32:44;100401.50;;;23.64;69.97
82262;BME280;71861;52.364;6.580;2023-09-18T13:35:10;100398.94;;;23.74;69.79
82262;BME280;71861;52.364;6.580;2023-09-18T13:37:37;100396.09;;;23.85;68.39
82262;BME280;71861;52.364;6.580;2023-09-18T13:40:04;100393.41;;;23.80;67.22
82262;BME280;71861;52.364;6.580;2023-09-18T13:42:32;100377.44;;;23.75;67.01
82262;BME280;71861;52.364;6.580;2023-09-18T13:44:58;100387.53;;;23.73;65.79
82262;BME280;71861;52.364;6.580;2023-09-18T13:47:26;100392.84;;;23.78;67.41
82262;BME280;71861;52.364;6.580;2023-09-18T13:49:52;100396.69;;;23.92;67.25
82262;BME280;71861;52.364;6.580;2023-09-18T13:52:18;100390.44;;;24.08;66.98
82262;BME280;71861;52.364;6.580;2023-09-18T13:54:45;100388.66;;;24.19;65.24
82262;BME280;71861;52.364;6.580;2023-09-18T13:57:16;100379.34;;;24.16;65.20
82262;BME280;71861;52.364;6.580;2023-09-18T13:59:41;100385.47;;;24.22;65.17
82262;BME280;71861;52.364;6.580;2023-09-18T14:02:07;100384.19;;;24.24;65.61
82262;BME280;71861;52.364;6.580;2023-09-18T14:04:33;100385.41;;;24.07;64.70
82262;BME280;71861;52.364;6.580;2023-09-18T14:06:59;100372.28;;;23.95;66.14
82262;BME280;71861;52.364;6.580;2023-09-18T14:09:25;100377.22;;;23.82;65.39
82262;BME280;71861;52.364;6.580;2023-09-18T14:11:50;100370.31;;;23.76;65.61
82262;BME280;71861;52.364;6.580;2023-09-18T14:14:15;100366.78;;;23.65;65.88
82262;BME280;71861;52.364;6.580;2023-09-18T14:16:41;100361.47;;;23.65;66.66
82262;BME280;71861;52.364;6.580;2023-09-18T14:19:06;100345.00;;;23.63;66.82
82262;BME280;71861;52.364;6.580;2023-09-18T14:21:36;100344.53;;;23.71;67.63
82262;BME280;71861;52.364;6.580;2023-09-18T14:24:02;100337.56;;;23.60;65.86
82262;BME280;71861;52.364;6.580;2023-09-18T14:26:27;100328.44;;;23.46;65.72
82262;BME280;71861;52.364;6.580;2023-09-18T14:28:52;100328.19;;;23.48;65.94
82262;BME280;71861;52.364;6.580;2023-09-18T14:31:19;100321.25;;;23.42;62.61
82262;BME280;71861;52.364;6.580;2023-09-18T14:33:44;100332.78;;;23.26;62.27
82262;BME280;71861;52.364;6.580;2023-09-18T14:36:10;100330.81;;;23.16;63.13
82262;BME280;71861;52.364;6.580;2023-09-18T14:38:35;100328.88;;;23.07;62.14
82262;BME280;71861;52.364;6.580;2023-09-18T14:41:01;100324.47;;;23.17;63.70
82262;BME280;71861;52.364;6.580;2023-09-18T14:43:28;100311.84;;;23.29;62.34
82262;BME280;71861;52.364;6.580;2023-09-18T14:45:53;100318.28;;;23.33;60.57
82262;BME280;71861;52.364;6.580;2023-09-18T14:48:21;100319.28;;;23.27;62.35
82262;BME280;71861;52.364;6.580;2023-09-18T14:50:53;100315.03;;;23.26;59.98
82262;BME280;71861;52.364;6.580;2023-09-18T14:53:19;100311.59;;;23.26;60.22
82262;BME280;71861;52.364;6.580;2023-09-18T14:55:44;100309.16;;;23.24;58.77
82262;BME280;71861;52.364;6.580;2023-09-18T14:58:09;100312.06;;;23.23;60.49
82262;BME280;71861;52.364;6.580;2023-09-18T15:00:35;100306.97;;;23.21;59.86
82262;BME280;71861;52.364;6.580;2023-09-18T15:03:00;100303.25;;;23.17;58.74
82262;BME280;71861;52.364;6.580;2023-09-18T15:05:25;100297.91;;;23.12;58.38
82262;BME280;71861;52.364;6.580;2023-09-18T15:07:51;100303.72;;;23.09;59.10
82262;BME280;71861;52.364;6.580;2023-09-18T15:10:17;100298.91;;;23.06;57.62
82262;BME280;71861;52.364;6.580;2023-09-18T15:12:43;100305.56;;;23.09;59.01
82262;BME280;71861;52.364;6.580;2023-09-18T15:15:09;100305.53;;;23.03;59.37
82262;BME280;71861;52.364;6.580;2023-09-18T15:17:34;100298.41;;;23.09;59.35
82262;BME280;71861;52.364;6.580;2023-09-18T15:20:01;100301.09;;;23.14;58.55
82262;BME280;71861;52.364;6.580;2023-09-18T15:22:28;100303.25;;;23.17;59.85
82262;BME280;71861;52.364;6.580;2023-09-18T15:24:53;100305.28;;;23.05;58.68
82262;BME280;71861;52.364;6.580;2023-09-18T15:27:19;100313.63;;;22.92;59.20
82262;BME280;71861;52.364;6.580;2023-09-18T15:29:45;100312.41;;;22.78;59.79
82262;BME280;71861;52.364;6.580;2023-09-18T15:32:10;100311.47;;;22.62;59.68
82262;BME280;71861;52.364;6.580;2023-09-18T15:34:36;100317.75;;;22.56;60.51
82262;BME280;71861;52.364;6.580;2023-09-18T15:37:01;100306.06;;;22.52;59.53
82262;BME280;71861;52.364;6.580;2023-09-18T15:39:33;100306.06;;;22.52;59.30
82262;BME280;71861;52.364;6.580;2023-09-18T15:42:00;100304.25;;;22.58;60.07
82262;BME280;71861;52.364;6.580;2023-09-18T15:44:25;100296.38;;;22.63;59.95
82262;BME280;71861;52.364;6.580;2023-09-18T15:46:51;100301.41;;;22.64;58.81
82262;BME280;71861;52.364;6.580;2023-09-18T15:49:16;100296.94;;;22.65;58.98
82262;BME280;71861;52.364;6.580;2023-09-18T15:51:43;100294.28;;;22.65;58.69
82262;BME280;71861;52.364;6.580;2023-09-18T15:54:09;100283.69;;;22.65;58.48
82262;BME280;71861;52.364;6.580;2023-09-18T15:56:34;100292.44;;;22.65;58.89
82262;BME280;71861;52.364;6.580;2023-09-18T15:59:00;100289.81;;;22.65;59.96
82262;BME280;71861;52.364;6.580;2023-09-18T16:01:26;100282.28;;;22.57;58.08
82262;BME280;71861;52.364;6.580;2023-09-18T16:03:51;100268.75;;;22.54;59.09
82262;BME280;71861;52.364;6.580;2023-09-18T16:06:17;100269.25;;;22.51;58.93
82262;BME280;71861;52.364;6.580;2023-09-18T16:08:43;100264.66;;;22.46;59.14
82262;BME280;71861;52.364;6.580;2023-09-18T16:11:09;100257.97;;;22.39;59.73